createdAt,value
2019-04-05T00:02:23.043Z,10.58
2019-04-05T00:04:53.684Z,11.25
2019-04-05T00:07:23.963Z,11.05
2019-04-05T00:09:54.552Z,10.93
2019-04-05T00:12:26.284Z,10.75
2019-04-05T00:14:56.569Z,11.12
2019-04-05T00:17:27.128Z,11.08
2019-04-05T00:19:57.760Z,11.73
2019-04-05T00:22:28.141Z,11.50
2019-04-05T00:24:58.693Z,10.68
2019-04-05T00:27:30.686Z,9.70
2019-04-05T00:30:00.963Z,10.32
2019-04-05T00:32:31.181Z,10.93
2019-04-05T00:35:01.389Z,10.85
2019-04-05T00:37:32.050Z,10.25
2019-04-05T00:40:02.400Z,10.88
2019-04-05T00:42:32.763Z,11.20
2019-04-05T00:45:03.050Z,11.48
2019-04-05T00:47:33.701Z,11.40
2019-04-05T00:50:06.735Z,11.10
2019-04-05T00:52:37.398Z,9.23
2019-04-05T00:55:09.153Z,10.55
2019-04-05T00:57:39.834Z,11.38
2019-04-05T01:00:13.759Z,10.63
2019-04-05T01:02:44.026Z,11.10
2019-04-05T01:05:14.751Z,10.82
2019-04-05T01:07:45.419Z,11.35
2019-04-05T01:10:18.066Z,10.78
2019-04-05T01:12:48.409Z,11.88
2019-04-05T01:15:19.208Z,12.00
2019-04-05T01:17:50.327Z,11.40
2019-04-05T01:20:20.563Z,11.97
2019-04-05T01:22:51.226Z,11.93
2019-04-05T01:25:22.237Z,10.98
2019-04-05T01:27:52.590Z,11.75
2019-04-05T01:30:22.893Z,11.68
2019-04-05T01:32:53.105Z,12.00
2019-04-05T01:35:23.335Z,10.53
2019-04-05T01:37:54.532Z,11.30
2019-04-05T01:40:28.895Z,10.80
2019-04-05T01:45:28.641Z,11.28
2019-04-05T01:47:59.016Z,11.10
2019-04-05T01:50:29.907Z,11.10
2019-04-05T01:53:01.000Z,11.12
2019-04-05T01:55:31.649Z,11.40
2019-04-05T01:58:01.962Z,11.30
2019-04-05T02:00:32.529Z,10.70
2019-04-05T02:03:04.469Z,10.48
2019-04-05T02:05:35.106Z,11.55
2019-04-05T02:08:06.083Z,11.53
2019-04-05T02:10:36.849Z,11.55
2019-04-05T02:13:07.610Z,11.68
2019-04-05T02:15:38.658Z,11.43
2019-04-05T02:18:08.898Z,10.88
2019-04-05T02:20:39.198Z,10.88
2019-04-05T02:23:09.430Z,11.33
2019-04-05T02:25:40.080Z,10.48
2019-04-05T02:28:10.798Z,10.38
2019-04-05T02:30:41.153Z,11.00
2019-04-05T02:33:11.837Z,11.22
2019-04-05T02:35:42.528Z,11.03
2019-04-05T02:38:12.833Z,10.68
2019-04-05T02:40:46.899Z,11.28
2019-04-05T02:43:23.311Z,10.08
2019-04-05T02:45:56.947Z,10.43
2019-04-05T02:48:32.242Z,10.58
2019-04-05T02:51:06.688Z,10.65
2019-04-05T02:56:07.949Z,10.00
2019-04-05T02:58:41.514Z,9.43
2019-04-05T03:01:13.000Z,11.03
2019-04-05T03:03:43.806Z,9.50
2019-04-05T03:06:15.025Z,10.72
2019-04-05T03:08:45.862Z,10.70
2019-04-05T03:11:19.505Z,10.95
2019-04-05T03:13:54.735Z,10.75
2019-04-05T03:16:40.047Z,11.33
2019-04-05T03:19:05.730Z,10.95
2019-04-05T03:21:41.020Z,10.90
2019-04-05T03:24:14.370Z,10.18
2019-04-05T03:26:52.230Z,10.72
2019-04-05T03:29:22.581Z,11.33
2019-04-05T03:31:54.492Z,11.05
2019-04-05T03:34:25.873Z,10.13
2019-04-05T03:36:56.614Z,10.43
2019-04-05T03:39:27.808Z,11.10
2019-04-05T03:41:59.984Z,10.53
2019-04-05T03:44:30.743Z,10.48
2019-04-05T03:47:01.748Z,10.30
2019-04-05T03:49:32.410Z,11.45
2019-04-05T03:52:04.795Z,11.10
2019-04-05T03:54:35.858Z,10.63
2019-04-05T03:57:06.372Z,10.38
2019-04-05T03:59:36.755Z,10.08
2019-04-05T04:02:07.580Z,10.88
2019-04-05T04:04:39.933Z,10.38
2019-04-05T04:07:10.693Z,11.45
2019-04-05T04:09:40.925Z,10.68
2019-04-05T04:12:13.043Z,11.15
2019-04-05T04:14:44.729Z,10.78
2019-04-05T04:17:15.634Z,10.93
2019-04-05T04:19:46.377Z,10.28
2019-04-05T04:22:25.289Z,10.13
2019-04-05T04:24:55.638Z,10.53
2019-04-05T04:27:26.585Z,10.05
2019-04-05T04:30:00.583Z,10.30
2019-04-05T04:32:31.608Z,11.08
2019-04-05T04:35:02.693Z,11.25
2019-04-05T04:37:33.046Z,9.30
2019-04-05T04:40:06.958Z,9.83
2019-04-05T04:42:37.753Z,10.85
2019-04-05T04:45:12.477Z,9.75
2019-04-05T04:47:41.818Z,10.23
2019-04-05T04:50:13.076Z,10.45
2019-04-05T04:52:45.095Z,9.40
2019-04-05T04:55:17.423Z,10.38
2019-04-05T04:57:47.920Z,9.75
2019-04-05T05:00:18.816Z,10.80
2019-04-05T05:02:49.458Z,10.15
2019-04-05T05:05:21.046Z,11.33
2019-04-05T05:07:53.594Z,10.68
2019-04-05T05:10:25.204Z,9.85
2019-04-05T05:12:57.803Z,11.35
2019-04-05T05:15:28.243Z,10.65
2019-04-05T05:17:59.230Z,10.85
2019-04-05T05:20:30.646Z,10.85
2019-04-05T05:23:01.302Z,11.22
2019-04-05T05:25:34.591Z,11.05
2019-04-05T05:28:05.617Z,10.68
2019-04-05T05:30:36.265Z,10.93
2019-04-05T05:33:06.581Z,11.12
2019-04-05T05:35:37.343Z,11.93
2019-04-05T05:38:08.004Z,13.00
2019-04-05T05:40:38.659Z,15.90
2019-04-05T05:43:08.962Z,12.90
2019-04-05T05:45:39.608Z,13.48
2019-04-05T05:48:10.376Z,13.88
2019-04-05T05:50:41.429Z,15.03
2019-04-05T05:53:12.592Z,13.43
2019-04-05T05:55:42.788Z,12.80
2019-04-05T05:58:13.011Z,11.75
2019-04-05T06:00:43.604Z,11.25
2019-04-05T06:03:16.475Z,11.40
2019-04-05T06:05:46.183Z,12.00
2019-04-05T06:08:16.498Z,11.85
2019-04-05T06:10:47.055Z,10.78
2019-04-05T06:13:18.911Z,11.57
2019-04-05T06:15:49.194Z,11.35
2019-04-05T06:18:19.791Z,10.80
2019-04-05T06:20:50.082Z,11.70
2019-04-05T06:23:33.007Z,12.07
2019-04-05T06:25:53.024Z,11.73
2019-04-05T06:28:23.305Z,12.03
2019-04-05T06:30:53.891Z,11.55
2019-04-05T06:33:31.323Z,12.33
2019-04-05T06:35:56.094Z,12.68
2019-04-05T06:38:26.719Z,12.53
2019-04-05T06:40:57.374Z,13.20
2019-04-05T06:43:28.869Z,12.70
2019-04-05T06:45:59.127Z,13.10
2019-04-05T06:48:29.912Z,11.70
2019-04-05T06:51:00.774Z,11.78
2019-04-05T06:53:31.422Z,12.75
2019-04-05T06:56:02.437Z,12.35
2019-04-05T06:58:32.720Z,12.43
2019-04-05T07:01:04.030Z,11.50
2019-04-05T07:03:34.382Z,13.35
2019-04-05T07:06:04.625Z,11.83
2019-04-05T07:08:35.201Z,12.85
2019-04-05T07:11:05.597Z,13.72
2019-04-05T07:13:36.305Z,13.05
2019-04-05T07:16:06.645Z,14.47
2019-04-05T07:18:37.225Z,14.33
2019-04-05T07:21:07.975Z,13.70
2019-04-05T07:23:38.220Z,13.62
2019-04-05T07:26:09.269Z,13.80
2019-04-05T07:28:39.490Z,13.88
2019-04-05T07:31:13.199Z,13.65
2019-04-05T07:33:43.512Z,13.83
2019-04-05T07:36:13.727Z,13.80
2019-04-05T07:38:44.330Z,13.90
2019-04-05T07:41:15.251Z,14.03
2019-04-05T07:43:46.462Z,13.85
2019-04-05T07:46:16.747Z,14.13
2019-04-05T07:48:47.356Z,14.47
2019-04-05T07:51:18.979Z,14.68
2019-04-05T07:53:49.669Z,13.90
2019-04-05T07:56:20.324Z,14.30
2019-04-05T07:58:50.696Z,14.07
2019-04-05T08:01:21.431Z,14.87
2019-04-05T08:03:52.152Z,13.88
2019-04-05T08:06:22.799Z,14.18
2019-04-05T08:09:11.816Z,13.85
2019-04-05T08:11:45.685Z,14.85
2019-04-05T08:14:19.038Z,14.83
2019-04-05T08:16:50.268Z,14.33
2019-04-05T08:19:20.580Z,15.98
2019-04-05T08:21:50.877Z,14.38
2019-04-05T08:24:21.240Z,15.00
2019-04-05T08:26:51.442Z,15.15
2019-04-05T08:29:22.039Z,16.25
2019-04-05T08:31:52.344Z,17.02
2019-04-05T08:34:22.932Z,16.20
2019-04-05T08:36:53.660Z,15.58
2019-04-05T08:39:24.437Z,16.15
2019-04-05T08:41:54.727Z,16.20
2019-04-05T08:44:24.957Z,15.98
2019-04-05T08:46:55.618Z,15.38
2019-04-05T08:49:26.070Z,16.55
2019-04-05T08:51:56.783Z,15.50
2019-04-05T08:54:33.252Z,15.60
2019-04-05T08:57:00.457Z,16.37
2019-04-05T08:59:31.027Z,16.20
2019-04-05T09:02:01.732Z,15.50
2019-04-05T09:04:32.042Z,15.72
2019-04-05T09:07:02.634Z,15.88
2019-04-05T09:09:32.920Z,15.72
2019-04-05T09:12:03.140Z,15.90
2019-04-05T09:14:33.749Z,16.50
2019-04-05T09:17:04.129Z,15.65
2019-04-05T09:19:34.348Z,15.53
2019-04-05T09:22:04.624Z,16.42
2019-04-05T09:24:34.838Z,16.07
2019-04-05T09:27:06.263Z,15.40
2019-04-05T09:29:38.814Z,15.63
2019-04-05T09:32:09.524Z,16.52
2019-04-05T09:34:40.260Z,15.75
2019-04-05T09:37:10.977Z,15.65
2019-04-05T09:39:41.371Z,15.35
2019-04-05T09:42:11.729Z,14.70
2019-04-05T09:44:42.380Z,15.60
2019-04-05T09:47:13.091Z,14.58
2019-04-05T09:49:43.411Z,15.43
2019-04-05T09:52:13.996Z,15.88
2019-04-05T09:54:44.316Z,14.68
2019-04-05T09:57:14.965Z,14.40
2019-04-05T09:59:45.687Z,15.98
2019-04-05T10:02:16.417Z,14.80
2019-04-05T10:04:47.117Z,13.90
2019-04-05T10:07:17.523Z,14.63
2019-04-05T10:09:50.314Z,15.32
2019-04-05T10:12:19.704Z,14.18
2019-04-05T10:14:50.397Z,13.80
2019-04-05T10:17:21.072Z,14.20
2019-04-05T10:19:51.722Z,13.80
2019-04-05T10:22:22.022Z,14.23
2019-04-05T10:24:52.251Z,13.85
2019-04-05T10:27:23.075Z,13.10
2019-04-05T10:29:53.931Z,13.62
2019-04-05T10:32:24.271Z,12.28
2019-04-05T10:34:55.699Z,13.85
2019-04-05T10:37:26.360Z,14.15
2019-04-05T10:39:56.715Z,14.50
2019-04-05T10:42:32.290Z,12.80
2019-04-05T10:45:03.294Z,13.78
2019-04-05T10:47:34.947Z,12.75
2019-04-05T10:50:09.074Z,12.33
2019-04-05T10:52:40.906Z,13.70
2019-04-05T10:55:12.493Z,13.00
2019-04-05T10:57:43.261Z,13.62
2019-04-05T11:00:17.399Z,13.03
2019-04-05T11:02:47.701Z,13.60
2019-04-05T11:05:17.982Z,13.15
2019-04-05T11:07:48.210Z,13.72
2019-04-05T11:10:18.951Z,12.15
2019-04-05T11:12:50.058Z,13.00
2019-04-05T11:15:21.073Z,12.75
2019-04-05T11:17:51.683Z,12.88
2019-04-05T11:20:22.580Z,12.53
2019-04-05T11:22:53.205Z,13.05
2019-04-05T11:25:23.871Z,13.43
2019-04-05T11:27:54.600Z,14.07
2019-04-05T11:30:42.754Z,13.62
2019-04-05T11:33:13.739Z,13.38
2019-04-05T11:35:44.558Z,12.20
2019-04-05T11:38:15.613Z,12.23
2019-04-05T11:40:47.507Z,13.35
2019-04-05T11:43:21.471Z,12.47
2019-04-05T11:45:51.898Z,11.97
2019-04-05T11:48:22.718Z,12.30
2019-04-05T11:50:52.986Z,12.20
2019-04-05T11:53:25.009Z,13.18
2019-04-05T11:55:57.267Z,11.97
2019-04-05T11:58:27.592Z,12.73
2019-04-05T12:01:14.808Z,12.15
2019-04-05T12:03:45.103Z,12.35
2019-04-05T12:06:15.322Z,12.50
2019-04-05T12:08:46.349Z,12.35
2019-04-05T12:11:16.945Z,12.37
2019-04-05T12:13:47.891Z,13.18
2019-04-05T12:16:18.176Z,11.53
2019-04-05T12:18:48.638Z,11.97
2019-04-05T12:21:21.042Z,11.35
2019-04-05T12:23:51.619Z,11.12
2019-04-05T12:26:22.178Z,11.55
2019-04-05T12:28:52.833Z,12.33
2019-04-05T12:31:24.506Z,11.08
2019-04-05T12:33:56.316Z,10.63
2019-04-05T12:36:26.900Z,12.18
2019-04-05T12:38:57.181Z,12.40
2019-04-05T12:41:27.783Z,12.45
2019-04-05T12:43:58.614Z,12.43
2019-04-05T12:46:29.692Z,11.83
2019-04-05T12:48:59.974Z,12.65
2019-04-05T12:51:30.748Z,12.45
2019-04-05T12:54:05.680Z,10.68
2019-04-05T12:56:35.975Z,11.88
2019-04-05T12:59:06.523Z,10.28
2019-04-05T13:01:39.265Z,11.18
2019-04-05T13:04:11.438Z,11.73
2019-04-05T13:06:43.634Z,11.48
2019-04-05T13:09:15.835Z,12.07
2019-04-05T13:11:46.523Z,11.50
2019-04-05T13:14:16.787Z,11.75
2019-04-05T13:16:49.490Z,12.07
2019-04-05T13:19:19.388Z,12.33
2019-04-05T13:21:49.604Z,13.32
2019-04-05T13:24:20.209Z,13.55
2019-04-05T13:26:50.493Z,12.93
2019-04-05T13:29:20.757Z,12.63
2019-04-05T13:31:51.399Z,12.25
2019-04-05T13:34:25.630Z,11.78
2019-04-05T13:36:53.642Z,12.73
2019-04-05T13:39:23.861Z,12.43
2019-04-05T13:41:54.472Z,12.33
2019-04-05T13:44:24.698Z,12.00
2019-04-05T13:46:54.940Z,13.58
2019-04-05T13:49:25.159Z,12.58
2019-04-05T13:51:55.394Z,11.88
2019-04-05T13:54:25.608Z,12.28
2019-04-05T13:56:56.207Z,12.30
2019-04-05T13:59:26.761Z,12.43
2019-04-05T14:02:06.017Z,11.35
2019-04-05T14:04:31.621Z,12.70
2019-04-05T14:07:03.695Z,10.93
2019-04-05T14:09:34.406Z,12.73
2019-04-05T14:12:09.209Z,13.03
2019-04-05T14:14:39.282Z,13.20
2019-04-05T14:17:11.448Z,11.70
2019-04-05T14:19:41.767Z,12.37
2019-04-05T14:22:12.340Z,12.90
2019-04-05T14:24:42.672Z,12.45
2019-04-05T14:27:12.880Z,11.97
2019-04-05T14:29:43.089Z,12.73
2019-04-05T14:32:20.836Z,12.33
2019-04-05T14:34:45.591Z,12.50
2019-04-05T14:37:15.910Z,13.10
2019-04-05T14:39:46.119Z,12.40
2019-04-05T14:42:16.722Z,11.25
2019-04-05T14:44:46.997Z,12.35
2019-04-05T14:47:19.769Z,12.13
2019-04-05T14:49:49.446Z,12.10
2019-04-05T14:52:19.755Z,12.70
2019-04-05T14:54:50.010Z,11.57
2019-04-05T14:57:20.214Z,13.40
2019-04-05T14:59:50.466Z,12.47
2019-04-05T15:02:20.685Z,12.20
2019-04-05T15:04:50.926Z,12.78
2019-04-05T15:07:21.569Z,12.30
2019-04-05T15:09:54.801Z,12.60
2019-04-05T15:12:28.638Z,12.33
2019-04-05T15:14:57.053Z,12.53
2019-04-05T15:17:27.333Z,11.33
2019-04-05T15:19:58.735Z,12.37
2019-04-05T15:22:29.523Z,13.68
2019-04-05T15:25:01.041Z,13.10
2019-04-05T15:27:32.108Z,12.93
2019-04-05T15:30:02.807Z,13.75
2019-04-05T15:32:34.425Z,12.88
2019-04-05T15:35:06.886Z,14.78
2019-04-05T15:37:38.014Z,14.03
2019-04-05T15:40:10.913Z,14.20
2019-04-05T15:42:41.506Z,13.65
2019-04-05T15:45:15.747Z,12.82
2019-04-05T15:47:44.956Z,12.43
2019-04-05T15:50:15.648Z,11.28
2019-04-05T15:52:45.953Z,11.20
2019-04-05T15:55:16.273Z,12.07
2019-04-05T15:57:46.848Z,11.73
2019-04-05T16:00:22.048Z,12.18
2019-04-05T16:02:52.283Z,11.83
2019-04-05T16:05:22.682Z,11.75
2019-04-05T16:07:53.352Z,12.28
2019-04-05T16:10:23.703Z,12.35
2019-04-05T16:12:53.955Z,11.12
2019-04-05T16:15:24.247Z,11.90
2019-04-05T16:17:54.822Z,10.25
2019-04-05T16:20:25.135Z,12.13
2019-04-05T16:22:55.383Z,11.90
2019-04-05T16:25:25.975Z,10.82
2019-04-05T16:27:56.257Z,12.20
2019-04-05T16:30:26.829Z,12.07
2019-04-05T16:32:57.529Z,11.80
2019-04-05T16:35:27.812Z,12.37
2019-04-05T16:37:58.049Z,12.07
2019-04-05T16:40:31.313Z,12.58
2019-04-05T16:43:03.150Z,12.33
2019-04-05T16:45:33.923Z,13.32
2019-04-05T16:48:04.372Z,12.65
2019-04-05T16:50:34.939Z,13.40
2019-04-05T16:53:06.326Z,13.38
2019-04-05T16:55:36.575Z,13.95
2019-04-05T16:58:06.801Z,14.13
2019-04-05T17:00:37.376Z,14.28
2019-04-05T17:03:07.776Z,12.68
2019-04-05T17:05:38.376Z,14.18
2019-04-05T17:08:08.659Z,12.85
2019-04-05T17:10:38.966Z,13.85
2019-04-05T17:13:09.332Z,12.88
2019-04-05T17:15:39.961Z,14.00
2019-04-05T17:18:11.757Z,12.88
2019-04-05T17:20:42.074Z,13.38
2019-04-05T17:23:12.324Z,14.43
2019-04-05T17:25:42.546Z,14.18
2019-04-05T17:28:13.137Z,13.75
2019-04-05T17:30:43.765Z,14.47
2019-04-05T17:33:14.437Z,15.08
2019-04-05T17:35:44.721Z,14.98
2019-04-05T17:38:15.329Z,15.75
2019-04-05T17:40:45.659Z,14.35
2019-04-05T17:43:16.291Z,17.62
2019-04-05T17:45:46.604Z,19.45
2019-04-05T17:48:16.846Z,21.73
2019-04-05T17:50:47.072Z,18.55
2019-04-05T17:53:17.646Z,19.40
2019-04-05T17:55:47.947Z,20.12
2019-04-05T17:58:28.625Z,18.12
2019-04-05T18:00:59.250Z,18.77
2019-04-05T18:03:29.903Z,19.75
2019-04-05T18:06:00.478Z,18.98
2019-04-05T18:08:30.874Z,22.70
2019-04-05T18:11:01.114Z,25.88
2019-04-05T18:13:31.690Z,25.08
2019-04-05T18:16:04.025Z,24.82
2019-04-05T18:18:34.381Z,23.27
2019-04-05T18:21:05.484Z,23.55
2019-04-05T18:23:37.195Z,24.02
2019-04-05T18:26:07.587Z,24.30
2019-04-05T18:28:38.184Z,24.00
2019-04-05T18:31:08.939Z,22.17
2019-04-05T18:33:39.159Z,23.50
2019-04-05T18:36:09.395Z,22.22
2019-04-05T18:38:39.959Z,23.12
2019-04-05T18:41:10.258Z,22.07
2019-04-05T18:43:42.006Z,23.55
2019-04-05T18:46:12.225Z,22.70
2019-04-05T18:48:42.478Z,22.80
2019-04-05T18:51:13.116Z,22.58
2019-04-05T18:53:43.363Z,23.98
2019-04-05T18:56:13.616Z,23.45
2019-04-05T18:58:44.203Z,25.85
2019-04-05T19:01:14.508Z,22.93
2019-04-05T19:03:45.099Z,23.92
2019-04-05T19:06:15.432Z,25.40
2019-04-05T19:08:45.773Z,22.58
2019-04-05T19:11:17.950Z,22.85
2019-04-05T19:14:00.623Z,22.37
2019-04-05T19:16:20.728Z,22.20
2019-04-05T19:18:51.325Z,21.35
2019-04-05T19:21:21.632Z,20.68
2019-04-05T19:23:51.945Z,22.25
2019-04-05T19:26:22.531Z,21.27
2019-04-05T19:28:52.831Z,20.90
2019-04-05T19:49:10.197Z,21.77
2019-04-05T19:51:40.393Z,22.87
2019-04-05T19:54:10.985Z,25.97
2019-04-05T19:56:44.005Z,24.63
2019-04-05T19:59:14.316Z,21.15
2019-04-05T20:01:44.879Z,21.20
2019-04-05T20:04:15.544Z,19.12
2019-04-05T20:06:46.214Z,18.12
2019-04-05T20:09:21.338Z,18.57
2019-04-05T20:11:51.836Z,16.77
2019-04-05T20:14:22.413Z,16.62
2019-04-05T20:16:53.077Z,16.12
2019-04-05T20:19:23.720Z,17.25
2019-04-05T20:21:54.590Z,15.83
2019-04-05T20:24:24.892Z,16.20
2019-04-05T20:26:55.465Z,15.75
2019-04-05T20:29:25.828Z,16.17
2019-04-05T20:31:56.409Z,15.83
2019-04-05T20:34:27.356Z,16.00
2019-04-05T20:36:57.676Z,17.20
2019-04-05T20:39:28.222Z,17.70
2019-04-05T20:41:58.533Z,17.67
2019-04-05T20:44:28.825Z,17.15
2019-04-05T20:46:59.043Z,17.35
2019-04-05T20:49:29.655Z,17.45
2019-04-05T20:52:00.291Z,18.05
2019-04-05T20:54:30.990Z,15.95
2019-04-05T20:57:01.326Z,15.80
2019-04-05T20:59:31.909Z,16.15
2019-04-05T21:02:02.550Z,17.10
2019-04-05T21:04:33.353Z,16.10
2019-04-05T21:07:03.711Z,15.68
2019-04-05T21:09:34.055Z,16.45
2019-04-05T21:12:04.312Z,15.10
2019-04-05T21:14:34.540Z,15.43
2019-04-05T21:17:05.112Z,14.30
2019-04-05T21:19:35.754Z,14.95
2019-04-05T21:22:06.456Z,14.73
2019-04-05T21:24:37.125Z,14.73
2019-04-05T21:27:07.748Z,14.07
2019-04-05T21:29:40.971Z,14.00
2019-04-05T21:32:11.193Z,14.98
2019-04-05T21:34:41.425Z,14.58
2019-04-05T21:37:11.634Z,15.13
2019-04-05T21:39:42.208Z,14.53
2019-04-05T21:42:12.495Z,14.28
2019-04-05T21:44:43.118Z,13.58
2019-04-05T21:47:13.455Z,13.62
2019-04-05T21:49:43.670Z,13.80
2019-04-05T21:52:13.911Z,14.65
2019-04-05T21:54:47.728Z,14.03
2019-04-05T21:57:16.870Z,13.15
2019-04-05T21:59:46.938Z,13.98
2019-04-05T22:02:18.193Z,13.32
2019-04-05T22:04:48.850Z,14.38
2019-04-05T22:07:19.736Z,14.35
2019-04-05T22:09:49.951Z,14.75
2019-04-05T22:12:20.546Z,13.78
2019-04-05T22:14:50.806Z,13.83
2019-04-05T22:17:21.023Z,13.30
2019-04-05T22:19:51.276Z,13.03
2019-04-05T22:22:21.517Z,13.03
2019-04-05T22:24:59.298Z,13.72
2019-04-05T22:27:25.253Z,12.82
2019-04-05T22:29:55.600Z,12.82
2019-04-05T22:32:26.189Z,13.68
2019-04-05T22:34:57.169Z,13.30
2019-04-05T22:37:27.812Z,12.95
2019-04-05T22:39:58.539Z,14.30
2019-04-05T22:42:28.847Z,12.93
2019-04-05T22:44:59.061Z,12.13
2019-04-05T22:47:29.311Z,11.12
2019-04-05T22:49:59.551Z,13.50
2019-04-05T22:52:30.142Z,13.10
2019-04-05T22:55:10.436Z,12.98
2019-04-05T22:57:33.146Z,13.55
2019-04-05T23:00:05.996Z,13.80
2019-04-05T23:05:08.570Z,13.30
2019-04-05T23:07:39.152Z,12.65
2019-04-05T23:10:10.257Z,12.45
2019-04-05T23:12:40.558Z,13.10
2019-04-05T23:15:11.479Z,13.83
2019-04-05T23:17:41.762Z,13.40
2019-04-05T23:20:12.586Z,12.60
2019-04-05T23:22:42.869Z,13.00
2019-04-05T23:25:21.421Z,13.38
2019-04-05T23:27:45.492Z,13.13
2019-04-05T23:30:17.975Z,13.68
2019-04-05T23:32:48.220Z,12.93
2019-04-05T23:35:18.440Z,13.75
2019-04-05T23:37:49.636Z,13.35
2019-04-05T23:40:20.286Z,13.95
2019-04-05T23:42:50.912Z,14.20
2019-04-05T23:45:21.576Z,14.23
2019-04-05T23:47:51.951Z,14.18
2019-04-05T23:50:22.509Z,14.60
2019-04-05T23:52:52.877Z,14.30
2019-04-05T23:55:32.803Z,14.40
2019-04-05T23:57:55.000Z,14.35
